createdAt,value
2023-06-26T00:02:07.475Z,154612.19
2023-06-26T00:04:33.416Z,154621.13
2023-06-26T00:06:59.273Z,154608.38
2023-06-26T00:09:25.614Z,154616.03
2023-06-26T00:11:52.728Z,154614.75
2023-06-26T00:14:21.115Z,154618.56
2023-06-26T00:16:49.859Z,154637.72
2023-06-26T00:19:16.238Z,154630.09
2023-06-26T00:21:46.961Z,154612.19
2023-06-26T00:24:13.893Z,154599.44
2023-06-26T00:26:39.748Z,154598.16
2023-06-26T00:29:06.307Z,154604.53
2023-06-26T00:31:32.429Z,154599.44
2023-06-26T00:33:58.371Z,154603.25
2023-06-26T00:36:26.811Z,154608.38
2023-06-26T00:38:56.268Z,154599.44
2023-06-26T00:41:22.075Z,154581.56
2023-06-26T00:43:47.943Z,154614.75
2023-06-26T00:46:14.812Z,154561.13
2023-06-26T00:48:45.714Z,154561.13
2023-06-26T00:51:12.651Z,154550.91
2023-06-26T00:53:38.915Z,154564.94
2023-06-26T00:56:06.012Z,154573.91
2023-06-26T00:58:31.898Z,154544.53
2023-06-26T01:00:58.145Z,154529.22
2023-06-26T01:03:25.627Z,154531.75
2023-06-26T01:06:01.853Z,154521.56
2023-06-26T01:08:28.148Z,154538.16
2023-06-26T01:10:54.352Z,154526.66
2023-06-26T01:13:20.708Z,154511.34
2023-06-26T01:15:47.818Z,154498.56
2023-06-26T01:18:15.725Z,154543.25
2023-06-26T01:20:42.104Z,154492.16
2023-06-26T01:23:26.965Z,154490.88
2023-06-26T01:26:21.359Z,154498.56
2023-06-26T01:28:49.166Z,154469.19
2023-06-26T01:31:15.570Z,154467.91
2023-06-26T01:33:42.222Z,154485.78
2023-06-26T01:36:08.402Z,154466.66
2023-06-26T01:38:37.386Z,154450.06
2023-06-26T01:41:05.137Z,154466.66
2023-06-26T01:43:49.179Z,154498.56
2023-06-26T01:46:22.186Z,154447.50
2023-06-26T01:48:59.536Z,154473.00
2023-06-26T01:51:30.897Z,154448.78
2023-06-26T01:53:59.195Z,154460.25
2023-06-26T01:56:25.833Z,154430.91
2023-06-26T01:58:55.301Z,154425.81
2023-06-26T02:01:22.087Z,154432.19
2023-06-26T02:03:49.082Z,154384.97
2023-06-26T02:06:15.362Z,154392.63
2023-06-26T02:08:41.395Z,154404.09
2023-06-26T02:11:07.306Z,154413.06
2023-06-26T02:13:33.166Z,154401.56
2023-06-26T02:15:59.043Z,154364.56
2023-06-26T02:18:24.826Z,154392.63
2023-06-26T02:20:50.826Z,154387.50
2023-06-26T02:23:16.647Z,154354.38
2023-06-26T02:25:42.489Z,154332.66
2023-06-26T02:28:08.575Z,154353.09
2023-06-26T02:30:34.435Z,154369.66
2023-06-26T02:33:00.314Z,154370.97
2023-06-26T02:35:26.214Z,154359.47
2023-06-26T02:37:52.064Z,154322.47
2023-06-26T02:40:17.905Z,154344.16
2023-06-26T02:42:43.743Z,154325.00
2023-06-26T02:45:10.113Z,154347.97
2023-06-26T02:47:39.752Z,154317.38
2023-06-26T02:50:07.216Z,154281.59
2023-06-26T02:52:33.035Z,154296.88
2023-06-26T02:54:58.911Z,154298.19
2023-06-26T02:57:24.743Z,154289.25
2023-06-26T02:59:50.716Z,154273.94
2023-06-26T03:02:16.630Z,154295.59
2023-06-26T03:04:43.453Z,154284.16
2023-06-26T03:07:09.642Z,154270.09
2023-06-26T03:09:35.613Z,154287.97
2023-06-26T03:12:01.518Z,154313.50
2023-06-26T03:14:27.379Z,154266.28
2023-06-26T03:16:56.332Z,154261.16
2023-06-26T03:19:22.186Z,154259.88
2023-06-26T03:21:48.054Z,154248.44
2023-06-26T03:24:13.848Z,154238.22
2023-06-26T03:26:39.744Z,154243.34
2023-06-26T03:29:05.556Z,154244.63
2023-06-26T03:31:31.484Z,154265.03
2023-06-26T03:33:57.406Z,154219.09
2023-06-26T03:36:23.221Z,154228.03
2023-06-26T03:38:49.062Z,154240.75
2023-06-26T03:41:14.980Z,154266.28
2023-06-26T03:43:40.824Z,154276.47
2023-06-26T03:46:06.625Z,154247.16
2023-06-26T03:48:32.657Z,154234.41
2023-06-26T03:50:58.545Z,154250.97
2023-06-26T03:53:24.804Z,154225.50
2023-06-26T03:55:50.611Z,154233.13
2023-06-26T03:58:16.433Z,154242.03
2023-06-26T04:00:42.400Z,154240.75
2023-06-26T04:03:09.480Z,154217.81
2023-06-26T04:05:36.331Z,154229.31
2023-06-26T04:08:02.186Z,154254.78
2023-06-26T04:10:28.325Z,154270.09
2023-06-26T04:12:54.260Z,154247.16
2023-06-26T04:15:20.348Z,154219.09
2023-06-26T04:17:46.235Z,154194.88
2023-06-26T04:20:12.203Z,154199.94
2023-06-26T04:22:38.075Z,154203.78
2023-06-26T04:25:04.557Z,154199.94
2023-06-26T04:27:35.738Z,154188.47
2023-06-26T04:30:02.792Z,154179.56
2023-06-26T04:32:28.604Z,154210.19
2023-06-26T04:34:54.422Z,154210.19
2023-06-26T04:37:20.688Z,154206.31
2023-06-26T04:39:46.587Z,154217.81
2023-06-26T04:42:12.526Z,154201.22
2023-06-26T04:44:38.851Z,154179.56
2023-06-26T04:47:04.923Z,154140.03
2023-06-26T04:49:30.730Z,154143.84
2023-06-26T04:51:57.029Z,154132.34
2023-06-26T04:54:23.616Z,154148.94
2023-06-26T04:56:49.450Z,154106.81
2023-06-26T04:59:15.355Z,154049.47
2023-06-26T05:01:41.422Z,154059.63
2023-06-26T05:04:07.605Z,154026.53
2023-06-26T05:06:33.453Z,154048.19
2023-06-26T05:08:59.281Z,154045.66
2023-06-26T05:11:25.822Z,154022.66
2023-06-26T05:13:51.742Z,154044.38
2023-06-26T05:16:17.569Z,154064.75
2023-06-26T05:18:43.371Z,154054.53
2023-06-26T05:21:09.575Z,154031.59
2023-06-26T05:23:35.984Z,154008.69
2023-06-26T05:26:03.270Z,153986.97
2023-06-26T05:28:31.398Z,153932.16
2023-06-26T05:30:58.625Z,153947.47
2023-06-26T05:33:26.883Z,153892.63
2023-06-26T05:35:53.652Z,153885.00
2023-06-26T05:38:20.381Z,153882.44
2023-06-26T05:40:46.805Z,153958.94
2023-06-26T05:43:13.082Z,153962.75
2023-06-26T05:45:38.952Z,153989.56
2023-06-26T05:48:05.158Z,153962.75
2023-06-26T05:50:31.510Z,153986.97
2023-06-26T05:52:57.703Z,153922.00
2023-06-26T05:55:24.064Z,153911.78
2023-06-26T05:57:51.398Z,153952.56
2023-06-26T06:00:17.753Z,154016.31
2023-06-26T06:02:43.797Z,153981.88
2023-06-26T06:05:10.170Z,153920.72
2023-06-26T06:07:36.700Z,153923.25
2023-06-26T06:10:03.819Z,153897.69
2023-06-26T06:12:30.007Z,153929.63
2023-06-26T06:14:56.720Z,153928.34
2023-06-26T06:17:23.080Z,153901.56
2023-06-26T06:19:49.746Z,153876.03
2023-06-26T06:22:16.886Z,153870.97
2023-06-26T06:24:43.247Z,153868.41
2023-06-26T06:27:09.061Z,153895.16
2023-06-26T06:29:34.882Z,153897.69
2023-06-26T06:32:01.082Z,153934.69
2023-06-26T06:34:26.978Z,153918.19
2023-06-26T06:36:52.905Z,153870.97
2023-06-26T06:39:18.770Z,153868.41
2023-06-26T06:41:44.632Z,153793.25
2023-06-26T06:44:10.431Z,153821.25
2023-06-26T06:46:36.244Z,153854.38
2023-06-26T06:49:02.606Z,153812.34
2023-06-26T06:51:28.421Z,153825.06
2023-06-26T06:53:54.302Z,153854.38
2023-06-26T06:56:20.113Z,153896.44
2023-06-26T06:58:47.315Z,153985.69
2023-06-26T07:01:13.913Z,153927.06
2023-06-26T07:03:40.362Z,153919.44
2023-06-26T07:06:06.370Z,153907.97
2023-06-26T07:08:32.409Z,153957.69
2023-06-26T07:10:58.261Z,153972.97
2023-06-26T07:13:24.288Z,153989.56
2023-06-26T07:15:50.275Z,153993.38
2023-06-26T07:18:16.647Z,154048.19
2023-06-26T07:20:42.538Z,154041.78
2023-06-26T07:23:08.883Z,154059.63
2023-06-26T07:25:35.110Z,154063.50
2023-06-26T07:28:01.186Z,154067.31
2023-06-26T07:30:27.027Z,154062.22
2023-06-26T07:32:52.938Z,154099.19
2023-06-26T07:35:18.804Z,154040.50
2023-06-26T07:37:44.924Z,154001.00
2023-06-26T07:40:11.316Z,153915.59
2023-06-26T07:42:37.302Z,153938.56
2023-06-26T07:45:10.248Z,153864.59
2023-06-26T07:47:37.296Z,153864.59
2023-06-26T07:50:03.757Z,153895.16
2023-06-26T07:52:30.549Z,153929.63
2023-06-26T07:54:57.107Z,153897.69
2023-06-26T07:57:23.187Z,153885.00
2023-06-26T07:59:49.074Z,153840.38
2023-06-26T08:02:14.967Z,153856.94
2023-06-26T08:04:40.891Z,153951.28
2023-06-26T08:07:06.953Z,154034.16
2023-06-26T08:09:33.045Z,154017.56
2023-06-26T08:11:59.324Z,154001.00
2023-06-26T08:14:25.557Z,154018.84
2023-06-26T08:16:51.749Z,154007.41
2023-06-26T08:19:17.678Z,154066.03
2023-06-26T08:21:47.486Z,153978.06
2023-06-26T08:24:13.802Z,153927.06
2023-06-26T08:26:40.154Z,154012.50
2023-06-26T08:29:11.543Z,153975.53
2023-06-26T08:31:39.867Z,153972.97
2023-06-26T08:34:06.466Z,154029.06
2023-06-26T08:36:32.517Z,154053.28
2023-06-26T08:38:58.672Z,154085.16
2023-06-26T08:41:25.144Z,154085.16
2023-06-26T08:43:52.920Z,154147.66
2023-06-26T08:46:19.956Z,154183.38
2023-06-26T08:48:56.122Z,154106.81
2023-06-26T08:51:26.102Z,154096.59
2023-06-26T08:54:02.636Z,154147.66
2023-06-26T08:56:35.836Z,154137.50
2023-06-26T08:59:01.886Z,154110.63
2023-06-26T09:01:28.438Z,154146.41
2023-06-26T09:03:54.526Z,154140.03
2023-06-26T09:06:20.957Z,154128.53
2023-06-26T09:08:47.133Z,154217.81
2023-06-26T09:11:13.184Z,154252.25
2023-06-26T09:13:40.009Z,154216.53
2023-06-26T09:16:09.583Z,154162.97
2023-06-26T09:18:35.843Z,154141.31
2023-06-26T09:21:08.564Z,154234.41
2023-06-26T09:23:35.852Z,154294.31
2023-06-26T09:26:06.001Z,154302.00
2023-06-26T09:28:35.808Z,154286.69
2023-06-26T09:31:08.732Z,154214.00
2023-06-26T09:33:36.972Z,154208.91
2023-06-26T09:36:10.270Z,154235.66
2023-06-26T09:38:36.679Z,154268.84
2023-06-26T09:41:04.215Z,154171.94
2023-06-26T09:43:31.493Z,154191.06
2023-06-26T09:45:57.709Z,154191.06
2023-06-26T09:48:23.600Z,154092.78
2023-06-26T09:51:05.532Z,154138.75
2023-06-26T09:53:36.833Z,154179.56
2023-06-26T09:56:06.901Z,154305.84
2023-06-26T09:58:33.784Z,154359.47
2023-06-26T10:00:59.721Z,154234.41
2023-06-26T10:03:25.699Z,154185.91
2023-06-26T10:05:53.187Z,154201.22
2023-06-26T10:08:19.397Z,154191.06
2023-06-26T10:10:48.289Z,154168.06
2023-06-26T10:13:22.965Z,154171.94
2023-06-26T10:15:51.473Z,154168.06
2023-06-26T10:18:18.917Z,154178.28
2023-06-26T10:20:51.364Z,154239.47
2023-06-26T10:23:22.300Z,154322.47
2023-06-26T10:25:52.624Z,154428.38
2023-06-26T10:28:21.705Z,154439.81
2023-06-26T10:30:49.334Z,154511.34
2023-06-26T10:33:15.544Z,154497.28
2023-06-26T10:35:44.003Z,154540.72
2023-06-26T10:38:09.844Z,154576.47
2023-06-26T10:40:47.150Z,154481.97
2023-06-26T10:43:14.430Z,154511.34
2023-06-26T10:45:45.352Z,154396.47
2023-06-26T10:48:14.563Z,154298.19
2023-06-26T10:50:40.877Z,154196.13
2023-06-26T10:53:21.109Z,154316.09
2023-06-26T10:55:58.290Z,154313.50
2023-06-26T10:58:34.917Z,154425.81
2023-06-26T11:01:16.087Z,154515.16
2023-06-26T11:03:45.209Z,154649.22
2023-06-26T11:06:13.220Z,154631.34
2023-06-26T11:08:47.382Z,154553.50
2023-06-26T11:11:13.393Z,154476.84
2023-06-26T11:13:40.765Z,154438.56
2023-06-26T11:16:06.915Z,154410.50
2023-06-26T11:18:33.092Z,154547.09
2023-06-26T11:21:06.741Z,154633.91
2023-06-26T11:23:34.768Z,154776.97
2023-06-26T11:26:21.995Z,154768.00
2023-06-26T11:28:52.642Z,154890.69
2023-06-26T11:31:32.977Z,154844.66
2023-06-26T11:34:04.052Z,154779.50
2023-06-26T11:36:31.009Z,154802.47
2023-06-26T11:38:58.758Z,154739.94
2023-06-26T11:41:27.342Z,154645.41
2023-06-26T11:43:53.517Z,154573.91
2023-06-26T11:46:21.217Z,154559.84
2023-06-26T11:48:47.760Z,154595.59
2023-06-26T11:51:17.378Z,154715.69
2023-06-26T11:53:45.096Z,154847.22
2023-06-26T11:56:15.570Z,154929.00
2023-06-26T11:59:03.338Z,155029.97
2023-06-26T12:01:35.066Z,154986.47
2023-06-26T12:04:03.843Z,154752.72
2023-06-26T12:06:32.306Z,154653.03
2023-06-26T12:09:05.333Z,154791.03
2023-06-26T12:11:32.379Z,154872.75
2023-06-26T12:13:59.410Z,154870.19
2023-06-26T12:16:25.965Z,154876.63
2023-06-26T12:18:58.160Z,154923.91
2023-06-26T12:21:42.412Z,154859.94
2023-06-26T12:24:10.961Z,154842.06
2023-06-26T12:26:37.133Z,154725.88
2023-06-26T12:29:03.573Z,154635.19
2023-06-26T12:31:29.759Z,154603.25
2023-06-26T12:33:55.774Z,154709.28
2023-06-26T12:36:21.653Z,154808.91
2023-06-26T12:38:49.397Z,154824.25
2023-06-26T12:41:16.252Z,154908.56
2023-06-26T12:43:42.905Z,154893.22
2023-06-26T12:46:09.281Z,154785.88
2023-06-26T12:48:46.855Z,154640.25
2023-06-26T12:51:16.876Z,154677.28
2023-06-26T12:53:43.312Z,154704.19
2023-06-26T12:56:10.126Z,154649.22
2023-06-26T12:58:37.331Z,154554.78
2023-06-26T13:01:04.670Z,154515.16
2023-06-26T13:03:31.302Z,154413.06
2023-06-26T13:05:57.337Z,154393.91
2023-06-26T13:08:23.368Z,154442.38
2023-06-26T13:10:49.411Z,154533.03
2023-06-26T13:13:15.375Z,154524.13
2023-06-26T13:15:41.327Z,154584.09
2023-06-26T13:18:07.197Z,154751.41
2023-06-26T13:20:33.143Z,154833.16
2023-06-26T13:22:58.984Z,154811.44
2023-06-26T13:25:24.908Z,154829.34
2023-06-26T13:27:50.733Z,155014.63
2023-06-26T13:30:18.369Z,155064.50
2023-06-26T13:32:44.664Z,154969.91
2023-06-26T13:35:10.626Z,154828.06
2023-06-26T13:37:37.092Z,154824.25
2023-06-26T13:40:03.512Z,154755.25
2023-06-26T13:42:29.861Z,154653.03
2023-06-26T13:45:04.221Z,154699.09
2023-06-26T13:47:34.992Z,154791.03
2023-06-26T13:50:01.054Z,154922.63
2023-06-26T13:52:26.975Z,155018.44
2023-06-26T13:54:52.892Z,154918.81
2023-06-26T13:57:22.422Z,155001.81
2023-06-26T13:59:48.749Z,154872.75
2023-06-26T14:02:14.909Z,154785.88
2023-06-26T14:04:41.258Z,154812.72
2023-06-26T14:07:07.731Z,154756.53
2023-06-26T14:09:33.607Z,154701.63
2023-06-26T14:11:59.471Z,154723.31
2023-06-26T14:14:25.488Z,154816.56
2023-06-26T14:16:51.466Z,154893.22
2023-06-26T14:19:19.956Z,154830.59
2023-06-26T14:21:45.943Z,154844.66
2023-06-26T14:24:11.794Z,154920.06
2023-06-26T14:26:39.149Z,154985.22
2023-06-26T14:29:04.945Z,155035.06
2023-06-26T14:31:31.379Z,155183.34
2023-06-26T14:33:59.335Z,155084.94
2023-06-26T14:36:25.647Z,154990.34
2023-06-26T14:38:51.517Z,154929.00
2023-06-26T14:41:17.741Z,154701.63
2023-06-26T14:43:45.896Z,154619.84
2023-06-26T14:46:13.012Z,154697.81
2023-06-26T14:48:39.552Z,154724.59
2023-06-26T14:51:05.416Z,154739.94
2023-06-26T14:53:31.410Z,154783.34
2023-06-26T14:55:57.358Z,154819.09
2023-06-26T14:58:23.418Z,154741.22
2023-06-26T15:00:49.285Z,154625.00
2023-06-26T15:03:15.257Z,154627.53
2023-06-26T15:05:41.129Z,154639.00
2023-06-26T15:08:06.996Z,154627.53
2023-06-26T15:10:34.236Z,154645.41
2023-06-26T15:13:00.316Z,154706.72
2023-06-26T15:15:26.299Z,154704.19
2023-06-26T15:17:52.305Z,154630.09
2023-06-26T15:20:18.142Z,154612.19
2023-06-26T15:22:44.067Z,154785.88
2023-06-26T15:25:11.071Z,154820.38
2023-06-26T15:27:36.925Z,154839.53
2023-06-26T15:30:03.407Z,154745.03
2023-06-26T15:32:29.356Z,154741.22
2023-06-26T15:34:55.268Z,154603.25
2023-06-26T15:37:21.149Z,154553.50
2023-06-26T15:39:47.001Z,154492.16
2023-06-26T15:42:12.862Z,154561.13
2023-06-26T15:44:38.662Z,154527.94
2023-06-26T15:47:04.937Z,154520.31
2023-06-26T15:49:31.570Z,154507.53
2023-06-26T15:51:57.462Z,154405.38
2023-06-26T15:54:23.332Z,154424.50
2023-06-26T15:56:49.206Z,154336.50
2023-06-26T15:59:18.863Z,154340.31
2023-06-26T16:01:46.217Z,154321.19
2023-06-26T16:04:12.858Z,154379.88
2023-06-26T16:06:38.839Z,154372.22
2023-06-26T16:09:04.758Z,154401.56
2023-06-26T16:11:30.652Z,154316.09
2023-06-26T16:13:58.289Z,154319.91
2023-06-26T16:16:24.168Z,154316.09
2023-06-26T16:18:50.127Z,154302.00
2023-06-26T16:21:16.443Z,154276.47
2023-06-26T16:23:42.314Z,154296.88
2023-06-26T16:26:08.339Z,154358.19
2023-06-26T16:28:34.231Z,154397.72
2023-06-26T16:31:00.227Z,154402.81
2023-06-26T16:33:26.134Z,154314.78
2023-06-26T16:35:52.102Z,154337.78
2023-06-26T16:38:18.012Z,154355.66
2023-06-26T16:40:43.866Z,154365.81
2023-06-26T16:43:10.127Z,154387.50
2023-06-26T16:45:35.927Z,154332.66
2023-06-26T16:48:01.853Z,154263.75
2023-06-26T16:50:27.921Z,154293.06
2023-06-26T16:52:53.771Z,154210.19
2023-06-26T16:55:19.672Z,154170.66
2023-06-26T16:57:45.569Z,154119.63
2023-06-26T17:00:11.894Z,154137.50
2023-06-26T17:02:38.233Z,154097.88
2023-06-26T17:05:04.463Z,154073.66
2023-06-26T17:07:30.435Z,154071.13
2023-06-26T17:09:56.708Z,154055.81
2023-06-26T17:12:22.997Z,154088.97
2023-06-26T17:14:48.894Z,153995.91
2023-06-26T17:17:17.725Z,153976.78
2023-06-26T17:19:44.913Z,153984.44
2023-06-26T17:22:10.808Z,154013.75
2023-06-26T17:24:36.677Z,154004.81
2023-06-26T17:27:14.588Z,153953.88
2023-06-26T17:29:41.448Z,154049.47
2023-06-26T17:32:08.292Z,154062.22
2023-06-26T17:34:35.824Z,154066.03
2023-06-26T17:37:04.499Z,154109.38
2023-06-26T17:39:30.987Z,154055.81
2023-06-26T17:41:56.920Z,154027.78
2023-06-26T17:44:27.794Z,154013.75
2023-06-26T17:46:54.378Z,154017.56
2023-06-26T17:49:22.495Z,154030.34
2023-06-26T17:51:49.002Z,154049.47
2023-06-26T17:54:15.543Z,154013.75
2023-06-26T17:56:43.258Z,154030.34
2023-06-26T17:59:09.271Z,153966.59
2023-06-26T18:01:35.204Z,153958.94
2023-06-26T18:04:01.199Z,153955.13
2023-06-26T18:06:27.193Z,153974.25
2023-06-26T18:08:54.181Z,153979.34
2023-06-26T18:11:20.098Z,153948.75
2023-06-26T18:13:46.112Z,153924.53
2023-06-26T18:16:12.115Z,153960.22
2023-06-26T18:18:41.370Z,153962.75
2023-06-26T18:21:07.565Z,153962.75
2023-06-26T18:23:33.866Z,154007.41
2023-06-26T18:26:00.800Z,153952.56
2023-06-26T18:28:31.647Z,153932.16
2023-06-26T18:30:57.468Z,153851.84
2023-06-26T18:33:25.950Z,153804.69
2023-06-26T18:35:51.811Z,153809.81
2023-06-26T18:38:17.719Z,153834.00
2023-06-26T18:40:43.599Z,153825.06
2023-06-26T18:43:09.545Z,153803.41
2023-06-26T18:45:35.615Z,153802.13
2023-06-26T18:48:01.746Z,153850.56
2023-06-26T18:50:28.818Z,153900.28
2023-06-26T18:52:55.016Z,153937.28
2023-06-26T18:55:21.177Z,153870.97
2023-06-26T18:57:48.264Z,153803.41
2023-06-26T19:00:16.020Z,153890.06
2023-06-26T19:02:42.060Z,153900.28
2023-06-26T19:05:08.401Z,153867.16
2023-06-26T19:07:34.696Z,153864.59
2023-06-26T19:10:00.567Z,153872.22
2023-06-26T19:12:26.523Z,153832.75
2023-06-26T19:14:52.488Z,153849.31
2023-06-26T19:17:18.585Z,153808.53
2023-06-26T19:19:44.761Z,153755.03
2023-06-26T19:22:10.729Z,153675.97
2023-06-26T19:24:36.610Z,153625.03
2023-06-26T19:27:02.683Z,153672.16
2023-06-26T19:29:28.589Z,153654.34
2023-06-26T19:31:55.363Z,153602.13
2023-06-26T19:34:21.379Z,153633.97
2023-06-26T19:36:47.263Z,153580.47
2023-06-26T19:39:13.318Z,153544.81
2023-06-26T19:41:39.222Z,153537.22
2023-06-26T19:44:05.015Z,153557.56
2023-06-26T19:46:30.863Z,153553.72
2023-06-26T19:48:57.445Z,153487.53
2023-06-26T19:51:23.332Z,153462.06
2023-06-26T19:53:52.149Z,153471.00
2023-06-26T19:56:18.275Z,153478.59
2023-06-26T19:58:44.067Z,153491.34
2023-06-26T20:01:09.988Z,153512.97
2023-06-26T20:03:36.150Z,153479.88
2023-06-26T20:06:02.037Z,153474.78
2023-06-26T20:08:27.938Z,153432.75
2023-06-26T20:10:53.833Z,153416.19
2023-06-26T20:13:20.054Z,153428.94
2023-06-26T20:15:45.945Z,153390.72
2023-06-26T20:18:12.186Z,153403.47
2023-06-26T20:20:38.093Z,153427.69
2023-06-26T20:23:04.064Z,153417.47
2023-06-26T20:25:30.594Z,153385.63
2023-06-26T20:27:56.488Z,153399.66
2023-06-26T20:30:22.543Z,153393.31
2023-06-26T20:32:48.482Z,153364.00
2023-06-26T20:35:14.316Z,153314.38
2023-06-26T20:37:40.583Z,153337.31
2023-06-26T20:40:07.189Z,153310.56
2023-06-26T20:42:33.316Z,153314.38
2023-06-26T20:44:59.523Z,153322.03
2023-06-26T20:47:41.487Z,153311.84
2023-06-26T20:50:09.914Z,153286.41
2023-06-26T20:52:39.245Z,153250.78
2023-06-26T20:55:05.798Z,153225.31
2023-06-26T20:57:31.631Z,153229.16
2023-06-26T20:59:57.963Z,153230.44
2023-06-26T21:02:23.993Z,153215.09
2023-06-26T21:04:49.913Z,153208.72
2023-06-26T21:07:15.915Z,153176.94
2023-06-26T21:09:41.939Z,153168.00
2023-06-26T21:12:08.398Z,153176.94
2023-06-26T21:14:34.272Z,153154.00
2023-06-26T21:17:00.628Z,153176.94
2023-06-26T21:19:26.576Z,153147.66
2023-06-26T21:21:52.439Z,153147.66
2023-06-26T21:24:18.545Z,153154.00
2023-06-26T21:26:44.472Z,153122.25
2023-06-26T21:29:10.587Z,153134.94
2023-06-26T21:31:36.649Z,153131.13
2023-06-26T21:34:02.616Z,153103.19
2023-06-26T21:36:28.483Z,153057.38
2023-06-26T21:38:54.377Z,153076.44
2023-06-26T21:41:20.302Z,153110.78
2023-06-26T21:43:46.097Z,153086.63
2023-06-26T21:46:11.972Z,153073.91
2023-06-26T21:48:39.040Z,153047.19
2023-06-26T21:51:05.304Z,153077.72
2023-06-26T21:53:31.192Z,153064.97
2023-06-26T21:55:57.152Z,153076.44
2023-06-26T21:58:23.015Z,153053.56
2023-06-26T22:00:48.850Z,153075.19
2023-06-26T22:03:14.700Z,153077.72
2023-06-26T22:05:40.914Z,153048.50
2023-06-26T22:08:07.799Z,153043.38
2023-06-26T22:10:34.170Z,153042.09
2023-06-26T22:13:00.437Z,153066.28
2023-06-26T22:15:26.407Z,153056.09
2023-06-26T22:17:54.269Z,153019.22
2023-06-26T22:20:20.982Z,153019.22
2023-06-26T22:22:47.919Z,153035.75
2023-06-26T22:25:14.541Z,153045.91
2023-06-26T22:27:48.546Z,152995.09
2023-06-26T22:30:15.663Z,152998.91
2023-06-26T22:32:42.553Z,153012.88
2023-06-26T22:35:08.885Z,152997.63
2023-06-26T22:37:34.959Z,152992.50
2023-06-26T22:40:00.840Z,152997.63
2023-06-26T22:42:27.055Z,152995.09
2023-06-26T22:44:52.906Z,153006.50
2023-06-26T22:47:19.347Z,152988.69
2023-06-26T22:49:48.874Z,153019.22
2023-06-26T22:52:15.957Z,152973.44
2023-06-26T22:54:41.817Z,153011.63
2023-06-26T22:57:07.763Z,152992.50
2023-06-26T22:59:33.581Z,152954.31
2023-06-26T23:01:59.476Z,152950.53
2023-06-26T23:04:25.339Z,152972.16
2023-06-26T23:06:57.331Z,152982.38
2023-06-26T23:09:23.739Z,152972.16
2023-06-26T23:11:49.851Z,152958.16
2023-06-26T23:14:15.798Z,152954.31
2023-06-26T23:16:42.939Z,152947.97
2023-06-26T23:19:09.709Z,152911.13
2023-06-26T23:21:36.325Z,152889.53
2023-06-26T23:24:03.112Z,152898.38
2023-06-26T23:26:31.770Z,152936.53
2023-06-26T23:28:58.339Z,152904.78
2023-06-26T23:31:25.796Z,152913.66
2023-06-26T23:33:52.562Z,152886.97
2023-06-26T23:36:18.601Z,152881.88
2023-06-26T23:38:44.619Z,152860.25
2023-06-26T23:41:11.162Z,152894.59
2023-06-26T23:43:38.014Z,152881.88
2023-06-26T23:46:07.226Z,152857.72
2023-06-26T23:48:33.246Z,152875.53
2023-06-26T23:50:59.046Z,152833.59
2023-06-26T23:53:25.017Z,152832.34
2023-06-26T23:55:50.892Z,152853.94
2023-06-26T23:58:17.689Z,152851.41
